sensor_id;sensor_type;location;lat;lon;timestamp;temperature;humidity
15386;DHT22;7791;47.246;9.648;2023-04-01T00:04:06;8.10;99.90
15386;DHT22;7791;47.246;9.648;2023-04-01T00:06:46;8.20;99.90
15386;DHT22;7791;47.246;9.648;2023-04-01T00:09:16;8.10;99.90
15386;DHT22;7791;47.246;9.648;2023-04-01T00:11:48;8.20;99.90
15386;DHT22;7791;47.246;9.648;2023-04-01T00:14:26;8.40;99.90
15386;DHT22;7791;47.246;9.648;2023-04-01T00:17:06;8.40;99.90
15386;DHT22;7791;47.246;9.648;2023-04-01T00:19:44;8.50;99.90
15386;DHT22;7791;47.246;9.648;2023-04-01T00:22:44;8.50;99.90
15386;DHT22;7791;47.246;9.648;2023-04-01T00:25:27;8.40;99.90
15386;DHT22;7791;47.246;9.648;2023-04-01T00:28:20;8.30;99.90
15386;DHT22;7791;47.246;9.648;2023-04-01T00:38:09;7.80;99.90
15386;DHT22;7791;47.246;9.648;2023-04-01T00:40:30;7.70;99.90
15386;DHT22;7791;47.246;9.648;2023-04-01T00:43:15;7.90;99.90
15386;DHT22;7791;47.246;9.648;2023-04-01T00:45:58;8.00;99.90
15386;DHT22;7791;47.246;9.648;2023-04-01T00:48:43;8.10;99.90
15386;DHT22;7791;47.246;9.648;2023-04-01T01:06:28;8.10;99.90
15386;DHT22;7791;47.246;9.648;2023-04-01T01:09:23;8.20;99.90
15386;DHT22;7791;47.246;9.648;2023-04-01T01:12:20;8.30;99.90
15386;DHT22;7791;47.246;9.648;2023-04-01T01:15:30;8.30;99.90
15386;DHT22;7791;47.246;9.648;2023-04-01T01:18:12;8.00;99.90
15386;DHT22;7791;47.246;9.648;2023-04-01T01:36:50;7.60;99.90
15386;DHT22;7791;47.246;9.648;2023-04-01T01:39:31;7.70;99.90
15386;DHT22;7791;47.246;9.648;2023-04-01T01:42:09;7.70;99.90
15386;DHT22;7791;47.246;9.648;2023-04-01T01:44:37;7.70;99.90
15386;DHT22;7791;47.246;9.648;2023-04-01T01:47:08;7.70;99.90
15386;DHT22;7791;47.246;9.648;2023-04-01T01:49:52;7.70;99.90
15386;DHT22;7791;47.246;9.648;2023-04-01T01:52:39;7.80;99.90
15386;DHT22;7791;47.246;9.648;2023-04-01T01:55:34;7.90;99.90
15386;DHT22;7791;47.246;9.648;2023-04-01T01:58:13;7.90;99.90
15386;DHT22;7791;47.246;9.648;2023-04-01T02:00:53;7.90;99.90
15386;DHT22;7791;47.246;9.648;2023-04-01T02:03:30;7.90;99.90
15386;DHT22;7791;47.246;9.648;2023-04-01T02:06:00;7.70;99.90
15386;DHT22;7791;47.246;9.648;2023-04-01T02:08:32;7.70;99.90
15386;DHT22;7791;47.246;9.648;2023-04-01T02:11:06;7.70;99.90
15386;DHT22;7791;47.246;9.648;2023-04-01T02:13:41;7.50;99.90
15386;DHT22;7791;47.246;9.648;2023-04-01T02:16:13;7.50;99.90
15386;DHT22;7791;47.246;9.648;2023-04-01T02:18:46;7.50;99.90
15386;DHT22;7791;47.246;9.648;2023-04-01T02:21:20;7.50;99.90
15386;DHT22;7791;47.246;9.648;2023-04-01T02:23:57;7.60;99.90
15386;DHT22;7791;47.246;9.648;2023-04-01T02:26:32;7.60;99.90
15386;DHT22;7791;47.246;9.648;2023-04-01T02:29:05;7.70;99.90
15386;DHT22;7791;47.246;9.648;2023-04-01T02:31:41;7.70;99.90
15386;DHT22;7791;47.246;9.648;2023-04-01T02:34:13;7.40;99.90
15386;DHT22;7791;47.246;9.648;2023-04-01T02:36:52;7.30;99.90
15386;DHT22;7791;47.246;9.648;2023-04-01T02:39:24;7.50;99.90
15386;DHT22;7791;47.246;9.648;2023-04-01T02:41:53;7.50;99.90
15386;DHT22;7791;47.246;9.648;2023-04-01T02:44:26;7.50;99.90
15386;DHT22;7791;47.246;9.648;2023-04-01T02:47:16;7.60;99.90
15386;DHT22;7791;47.246;9.648;2023-04-01T02:49:49;7.60;99.90
15386;DHT22;7791;47.246;9.648;2023-04-01T02:55:05;7.70;99.90
15386;DHT22;7791;47.246;9.648;2023-04-01T02:57:43;7.70;99.90
15386;DHT22;7791;47.246;9.648;2023-04-01T03:00:21;7.70;99.90
15386;DHT22;7791;47.246;9.648;2023-04-01T03:02:47;7.60;99.90
15386;DHT22;7791;47.246;9.648;2023-04-01T03:05:13;7.50;99.90
15386;DHT22;7791;47.246;9.648;2023-04-01T03:07:44;7.50;99.90
15386;DHT22;7791;47.246;9.648;2023-04-01T03:10:18;7.50;99.90
15386;DHT22;7791;47.246;9.648;2023-04-01T03:12:50;7.50;99.90
15386;DHT22;7791;47.246;9.648;2023-04-01T03:15:21;7.50;99.90
15386;DHT22;7791;47.246;9.648;2023-04-01T03:17:50;7.50;99.90
15386;DHT22;7791;47.246;9.648;2023-04-01T03:20:27;7.60;99.90
15386;DHT22;7791;47.246;9.648;2023-04-01T03:22:57;7.50;99.90
15386;DHT22;7791;47.246;9.648;2023-04-01T03:25:29;7.50;99.90
15386;DHT22;7791;47.246;9.648;2023-04-01T03:27:58;7.60;99.90
15386;DHT22;7791;47.246;9.648;2023-04-01T03:30:36;7.60;99.90
15386;DHT22;7791;47.246;9.648;2023-04-01T03:33:06;7.60;99.90
15386;DHT22;7791;47.246;9.648;2023-04-01T03:35:33;7.50;99.90
15386;DHT22;7791;47.246;9.648;2023-04-01T03:38:02;7.40;99.90
15386;DHT22;7791;47.246;9.648;2023-04-01T03:40:31;7.40;99.90
15386;DHT22;7791;47.246;9.648;2023-04-01T03:43:05;7.50;99.90
15386;DHT22;7791;47.246;9.648;2023-04-01T03:45:45;7.50;99.90
15386;DHT22;7791;47.246;9.648;2023-04-01T03:48:17;7.50;99.90
15386;DHT22;7791;47.246;9.648;2023-04-01T03:50:51;7.50;99.90
15386;DHT22;7791;47.246;9.648;2023-04-01T03:53:20;7.50;99.90
15386;DHT22;7791;47.246;9.648;2023-04-01T03:58:52;7.50;99.90
15386;DHT22;7791;47.246;9.648;2023-04-01T04:01:20;7.40;99.90
15386;DHT22;7791;47.246;9.648;2023-04-01T04:03:55;7.40;99.90
15386;DHT22;7791;47.246;9.648;2023-04-01T04:06:27;7.40;99.90
15386;DHT22;7791;47.246;9.648;2023-04-01T04:08:55;7.40;99.90
15386;DHT22;7791;47.246;9.648;2023-04-01T04:11:30;7.40;99.90
15386;DHT22;7791;47.246;9.648;2023-04-01T04:14:05;7.40;99.90
15386;DHT22;7791;47.246;9.648;2023-04-01T04:16:36;7.40;99.90
15386;DHT22;7791;47.246;9.648;2023-04-01T04:19:05;7.50;99.90
15386;DHT22;7791;47.246;9.648;2023-04-01T04:21:32;7.30;99.90
15386;DHT22;7791;47.246;9.648;2023-04-01T04:23:58;7.40;99.90
15386;DHT22;7791;47.246;9.648;2023-04-01T04:26:24;7.40;99.90
15386;DHT22;7791;47.246;9.648;2023-04-01T04:28:54;7.30;99.90
15386;DHT22;7791;47.246;9.648;2023-04-01T04:31:29;7.30;99.90
15386;DHT22;7791;47.246;9.648;2023-04-01T04:33:55;7.30;99.90
15386;DHT22;7791;47.246;9.648;2023-04-01T04:36:26;7.30;99.90
15386;DHT22;7791;47.246;9.648;2023-04-01T04:38:58;7.40;99.90
15386;DHT22;7791;47.246;9.648;2023-04-01T04:44:12;7.40;99.90
15386;DHT22;7791;47.246;9.648;2023-04-01T04:46:42;7.50;99.90
15386;DHT22;7791;47.246;9.648;2023-04-01T04:49:08;7.40;99.90
15386;DHT22;7791;47.246;9.648;2023-04-01T04:51:45;7.30;99.90
15386;DHT22;7791;47.246;9.648;2023-04-01T04:54:14;7.20;99.90
15386;DHT22;7791;47.246;9.648;2023-04-01T04:56:46;7.20;99.90
15386;DHT22;7791;47.246;9.648;2023-04-01T04:59:19;7.30;99.90
15386;DHT22;7791;47.246;9.648;2023-04-01T05:02:02;7.40;99.90
15386;DHT22;7791;47.246;9.648;2023-04-01T05:04:49;7.50;99.90
15386;DHT22;7791;47.246;9.648;2023-04-01T05:07:15;7.50;99.90
15386;DHT22;7791;47.246;9.648;2023-04-01T05:09:45;7.50;99.90
15386;DHT22;7791;47.246;9.648;2023-04-01T05:12:26;7.70;99.90
15386;DHT22;7791;47.246;9.648;2023-04-01T05:14:54;7.70;99.90
15386;DHT22;7791;47.246;9.648;2023-04-01T05:17:33;7.80;99.90
15386;DHT22;7791;47.246;9.648;2023-04-01T05:20:06;7.80;99.90
15386;DHT22;7791;47.246;9.648;2023-04-01T05:22:38;7.80;99.90
15386;DHT22;7791;47.246;9.648;2023-04-01T05:25:09;7.70;99.90
15386;DHT22;7791;47.246;9.648;2023-04-01T05:27:47;7.60;99.90
15386;DHT22;7791;47.246;9.648;2023-04-01T05:30:23;7.40;99.90
15386;DHT22;7791;47.246;9.648;2023-04-01T05:33:00;7.20;99.90
15386;DHT22;7791;47.246;9.648;2023-04-01T05:35:32;7.30;99.90
15386;DHT22;7791;47.246;9.648;2023-04-01T05:38:21;7.40;99.90
15386;DHT22;7791;47.246;9.648;2023-04-01T05:40:58;7.50;99.90
15386;DHT22;7791;47.246;9.648;2023-04-01T05:43:29;7.60;99.90
15386;DHT22;7791;47.246;9.648;2023-04-01T05:46:03;7.70;99.90
15386;DHT22;7791;47.246;9.648;2023-04-01T05:48:44;7.70;99.90
15386;DHT22;7791;47.246;9.648;2023-04-01T05:51:19;7.80;99.90
15386;DHT22;7791;47.246;9.648;2023-04-01T05:54:15;7.70;99.90
15386;DHT22;7791;47.246;9.648;2023-04-01T05:56:42;7.70;99.90
15386;DHT22;7791;47.246;9.648;2023-04-01T05:59:17;7.80;99.90
15386;DHT22;7791;47.246;9.648;2023-04-01T06:01:53;7.70;99.90
15386;DHT22;7791;47.246;9.648;2023-04-01T06:04:21;7.70;99.90
15386;DHT22;7791;47.246;9.648;2023-04-01T06:06:50;7.70;99.90
15386;DHT22;7791;47.246;9.648;2023-04-01T06:12:16;7.70;99.90
15386;DHT22;7791;47.246;9.648;2023-04-01T06:14:54;7.70;99.90
15386;DHT22;7791;47.246;9.648;2023-04-01T06:17:34;7.60;99.90
15386;DHT22;7791;47.246;9.648;2023-04-01T06:20:12;7.80;99.90
15386;DHT22;7791;47.246;9.648;2023-04-01T06:25:54;8.00;99.90
15386;DHT22;7791;47.246;9.648;2023-04-01T06:28:59;8.10;99.90
15386;DHT22;7791;47.246;9.648;2023-04-01T06:31:46;8.20;99.90
15386;DHT22;7791;47.246;9.648;2023-04-01T06:34:48;8.40;99.90
15386;DHT22;7791;47.246;9.648;2023-04-01T06:37:55;8.50;99.90
15386;DHT22;7791;47.246;9.648;2023-04-01T06:40:46;8.50;99.90
15386;DHT22;7791;47.246;9.648;2023-04-01T06:43:21;8.30;99.90
15386;DHT22;7791;47.246;9.648;2023-04-01T06:45:59;8.50;99.90
15386;DHT22;7791;47.246;9.648;2023-04-01T06:48:46;8.80;99.90
15386;DHT22;7791;47.246;9.648;2023-04-01T06:51:24;9.00;99.90
15386;DHT22;7791;47.246;9.648;2023-04-01T06:54:00;9.20;99.90
15386;DHT22;7791;47.246;9.648;2023-04-01T06:56:31;9.20;99.90
15386;DHT22;7791;47.246;9.648;2023-04-01T06:59:07;9.20;99.90
15386;DHT22;7791;47.246;9.648;2023-04-01T07:01:49;9.20;99.90
15386;DHT22;7791;47.246;9.648;2023-04-01T07:04:29;9.30;99.90
15386;DHT22;7791;47.246;9.648;2023-04-01T07:07:04;9.40;99.90
15386;DHT22;7791;47.246;9.648;2023-04-01T07:09:47;9.40;99.90
15386;DHT22;7791;47.246;9.648;2023-04-01T07:12:27;9.90;99.90
15386;DHT22;7791;47.246;9.648;2023-04-01T07:15:02;11.70;99.90
15386;DHT22;7791;47.246;9.648;2023-04-01T07:17:41;13.30;99.90
15386;DHT22;7791;47.246;9.648;2023-04-01T07:20:31;13.00;99.90
15386;DHT22;7791;47.246;9.648;2023-04-01T07:23:15;13.30;99.90
15386;DHT22;7791;47.246;9.648;2023-04-01T07:28:43;15.80;99.90
15386;DHT22;7791;47.246;9.648;2023-04-01T07:31:20;15.60;99.90
15386;DHT22;7791;47.246;9.648;2023-04-01T07:34:01;14.40;99.90
15386;DHT22;7791;47.246;9.648;2023-04-01T07:36:38;14.00;99.90
15386;DHT22;7791;47.246;9.648;2023-04-01T07:39:43;13.40;99.90
15386;DHT22;7791;47.246;9.648;2023-04-01T07:42:36;13.00;99.90
15386;DHT22;7791;47.246;9.648;2023-04-01T07:45:22;12.40;99.90
15386;DHT22;7791;47.246;9.648;2023-04-01T07:48:07;12.00;99.90
15386;DHT22;7791;47.246;9.648;2023-04-01T07:50:46;12.10;99.90
15386;DHT22;7791;47.246;9.648;2023-04-01T07:53:21;12.30;99.90
15386;DHT22;7791;47.246;9.648;2023-04-01T07:55:56;12.20;99.90
15386;DHT22;7791;47.246;9.648;2023-04-01T07:58:36;12.00;99.90
15386;DHT22;7791;47.246;9.648;2023-04-01T08:01:19;11.80;99.90
15386;DHT22;7791;47.246;9.648;2023-04-01T08:04:10;11.90;99.90
15386;DHT22;7791;47.246;9.648;2023-04-01T08:09:43;12.50;99.90
15386;DHT22;7791;47.246;9.648;2023-04-01T08:15:55;13.20;99.90
15386;DHT22;7791;47.246;9.648;2023-04-01T08:18:41;13.10;99.90
15386;DHT22;7791;47.246;9.648;2023-04-01T08:21:31;12.70;99.90
15386;DHT22;7791;47.246;9.648;2023-04-01T08:24:10;12.70;99.90
15386;DHT22;7791;47.246;9.648;2023-04-01T08:26:55;12.80;99.90
15386;DHT22;7791;47.246;9.648;2023-04-01T08:29:38;13.00;99.90
15386;DHT22;7791;47.246;9.648;2023-04-01T08:32:18;12.50;99.90
15386;DHT22;7791;47.246;9.648;2023-04-01T08:59:48;11.40;99.90
15386;DHT22;7791;47.246;9.648;2023-04-01T09:02:29;11.50;99.90
15386;DHT22;7791;47.246;9.648;2023-04-01T09:08:05;12.00;99.90
15386;DHT22;7791;47.246;9.648;2023-04-01T09:13:55;12.90;99.90
15386;DHT22;7791;47.246;9.648;2023-04-01T09:22:56;13.70;99.90
15386;DHT22;7791;47.246;9.648;2023-04-01T09:25:44;13.70;99.90
15386;DHT22;7791;47.246;9.648;2023-04-01T09:28:33;13.50;99.90
15386;DHT22;7791;47.246;9.648;2023-04-01T09:31:31;13.60;99.90
15386;DHT22;7791;47.246;9.648;2023-04-01T09:37:20;13.50;99.90
15386;DHT22;7791;47.246;9.648;2023-04-01T09:39:57;13.50;99.90
15386;DHT22;7791;47.246;9.648;2023-04-01T09:42:45;13.20;99.90
15386;DHT22;7791;47.246;9.648;2023-04-01T09:45:26;13.20;99.90
15386;DHT22;7791;47.246;9.648;2023-04-01T09:48:11;13.10;99.90
15386;DHT22;7791;47.246;9.648;2023-04-01T09:50:48;13.20;99.90
15386;DHT22;7791;47.246;9.648;2023-04-01T09:53:42;13.20;99.90
15386;DHT22;7791;47.246;9.648;2023-04-01T09:56:41;13.30;99.90
15386;DHT22;7791;47.246;9.648;2023-04-01T09:59:42;13.60;99.90
15386;DHT22;7791;47.246;9.648;2023-04-01T10:02:45;13.40;99.90
15386;DHT22;7791;47.246;9.648;2023-04-01T10:05:51;13.00;99.90
15386;DHT22;7791;47.246;9.648;2023-04-01T10:14:57;12.80;99.90
15386;DHT22;7791;47.246;9.648;2023-04-01T10:20:46;13.10;99.90
15386;DHT22;7791;47.246;9.648;2023-04-01T10:26:38;13.50;99.90
15386;DHT22;7791;47.246;9.648;2023-04-01T10:32:49;13.90;99.90
15386;DHT22;7791;47.246;9.648;2023-04-01T10:38:56;13.30;99.90
15386;DHT22;7791;47.246;9.648;2023-04-01T10:42:00;13.40;99.90
15386;DHT22;7791;47.246;9.648;2023-04-01T10:45:07;13.70;99.90
15386;DHT22;7791;47.246;9.648;2023-04-01T10:48:12;13.80;99.90
15386;DHT22;7791;47.246;9.648;2023-04-01T10:54:02;13.80;99.90
15386;DHT22;7791;47.246;9.648;2023-04-01T10:56:40;13.80;99.90
15386;DHT22;7791;47.246;9.648;2023-04-01T10:59:39;13.20;99.90
15386;DHT22;7791;47.246;9.648;2023-04-01T11:11:58;12.20;99.90
15386;DHT22;7791;47.246;9.648;2023-04-01T11:15:11;12.30;99.90
15386;DHT22;7791;47.246;9.648;2023-04-01T11:18:01;12.50;99.90
15386;DHT22;7791;47.246;9.648;2023-04-01T11:23:53;12.90;99.90
15386;DHT22;7791;47.246;9.648;2023-04-01T11:26:32;13.10;99.90
15386;DHT22;7791;47.246;9.648;2023-04-01T11:31:58;13.90;99.90
15386;DHT22;7791;47.246;9.648;2023-04-01T11:34:48;14.30;99.90
15386;DHT22;7791;47.246;9.648;2023-04-01T11:37:29;14.50;99.90
15386;DHT22;7791;47.246;9.648;2023-04-01T11:40:07;14.10;99.90
15386;DHT22;7791;47.246;9.648;2023-04-01T11:42:40;13.90;99.90
15386;DHT22;7791;47.246;9.648;2023-04-01T11:45:18;14.10;99.90
15386;DHT22;7791;47.246;9.648;2023-04-01T11:51:09;13.40;99.90
15386;DHT22;7791;47.246;9.648;2023-04-01T11:53:44;13.00;99.90
15386;DHT22;7791;47.246;9.648;2023-04-01T11:56:28;12.60;99.90
15386;DHT22;7791;47.246;9.648;2023-04-01T11:59:04;12.60;99.90
15386;DHT22;7791;47.246;9.648;2023-04-01T12:01:44;12.90;99.90
15386;DHT22;7791;47.246;9.648;2023-04-01T12:04:43;13.20;99.90
15386;DHT22;7791;47.246;9.648;2023-04-01T12:07:19;13.50;99.90
15386;DHT22;7791;47.246;9.648;2023-04-01T12:09:52;13.60;99.90
15386;DHT22;7791;47.246;9.648;2023-04-01T12:12:29;13.60;99.90
15386;DHT22;7791;47.246;9.648;2023-04-01T12:15:11;13.30;99.90
15386;DHT22;7791;47.246;9.648;2023-04-01T12:17:43;13.30;99.90
15386;DHT22;7791;47.246;9.648;2023-04-01T12:20:25;13.30;99.90
15386;DHT22;7791;47.246;9.648;2023-04-01T12:23:03;13.30;99.90
15386;DHT22;7791;47.246;9.648;2023-04-01T12:25:57;13.30;99.90
15386;DHT22;7791;47.246;9.648;2023-04-01T12:28:32;13.10;99.90
15386;DHT22;7791;47.246;9.648;2023-04-01T12:31:13;13.10;99.90
15386;DHT22;7791;47.246;9.648;2023-04-01T12:34:19;13.10;99.90
15386;DHT22;7791;47.246;9.648;2023-04-01T12:36:59;12.90;99.90
15386;DHT22;7791;47.246;9.648;2023-04-01T12:39:48;12.60;99.90
15386;DHT22;7791;47.246;9.648;2023-04-01T12:42:31;12.50;99.90
15386;DHT22;7791;47.246;9.648;2023-04-01T12:45:11;12.10;99.90
15386;DHT22;7791;47.246;9.648;2023-04-01T12:48:03;12.00;99.90
15386;DHT22;7791;47.246;9.648;2023-04-01T12:50:53;12.00;99.90
15386;DHT22;7791;47.246;9.648;2023-04-01T12:53:41;12.00;99.90
15386;DHT22;7791;47.246;9.648;2023-04-01T12:56:14;11.80;99.90
15386;DHT22;7791;47.246;9.648;2023-04-01T12:59:19;11.50;99.90
15386;DHT22;7791;47.246;9.648;2023-04-01T13:02:01;11.70;99.90
15386;DHT22;7791;47.246;9.648;2023-04-01T13:04:56;12.10;99.90
15386;DHT22;7791;47.246;9.648;2023-04-01T13:07:38;12.70;99.90
15386;DHT22;7791;47.246;9.648;2023-04-01T13:10:20;12.90;99.90
15386;DHT22;7791;47.246;9.648;2023-04-01T13:13:08;12.90;99.90
15386;DHT22;7791;47.246;9.648;2023-04-01T13:15:42;12.60;99.90
15386;DHT22;7791;47.246;9.648;2023-04-01T13:18:19;12.70;99.90
15386;DHT22;7791;47.246;9.648;2023-04-01T13:20:54;13.00;99.90
15386;DHT22;7791;47.246;9.648;2023-04-01T13:23:32;13.30;99.90
15386;DHT22;7791;47.246;9.648;2023-04-01T13:26:07;13.40;99.90
15386;DHT22;7791;47.246;9.648;2023-04-01T13:28:42;13.50;99.90
15386;DHT22;7791;47.246;9.648;2023-04-01T13:31:22;13.40;99.90
15386;DHT22;7791;47.246;9.648;2023-04-01T13:33:57;13.30;99.90
15386;DHT22;7791;47.246;9.648;2023-04-01T13:36:31;13.50;99.90
15386;DHT22;7791;47.246;9.648;2023-04-01T13:39:19;14.00;99.90
15386;DHT22;7791;47.246;9.648;2023-04-01T13:42:07;14.40;99.90
15386;DHT22;7791;47.246;9.648;2023-04-01T13:44:40;14.70;99.90
15386;DHT22;7791;47.246;9.648;2023-04-01T13:47:46;14.60;99.90
15386;DHT22;7791;47.246;9.648;2023-04-01T13:50:34;14.00;99.90
15386;DHT22;7791;47.246;9.648;2023-04-01T13:53:21;13.30;99.90
15386;DHT22;7791;47.246;9.648;2023-04-01T13:56:05;12.50;99.90
15386;DHT22;7791;47.246;9.648;2023-04-01T14:01:28;11.90;99.90
15386;DHT22;7791;47.246;9.648;2023-04-01T14:04:23;11.50;99.90
15386;DHT22;7791;47.246;9.648;2023-04-01T14:07:04;11.50;99.90
15386;DHT22;7791;47.246;9.648;2023-04-01T14:09:44;11.60;99.90
15386;DHT22;7791;47.246;9.648;2023-04-01T14:21:33;12.80;99.90
15386;DHT22;7791;47.246;9.648;2023-04-01T14:24:21;13.00;99.90
15386;DHT22;7791;47.246;9.648;2023-04-01T14:27:20;13.10;99.90
15386;DHT22;7791;47.246;9.648;2023-04-01T14:33:28;13.20;99.90
15386;DHT22;7791;47.246;9.648;2023-04-01T14:50:43;13.80;99.90
15386;DHT22;7791;47.246;9.648;2023-04-01T15:02:53;13.90;99.90
15386;DHT22;7791;47.246;9.648;2023-04-01T15:12:15;13.50;99.90
15386;DHT22;7791;47.246;9.648;2023-04-01T15:14:53;13.10;99.90
15386;DHT22;7791;47.246;9.648;2023-04-01T15:17:35;13.10;99.90
15386;DHT22;7791;47.246;9.648;2023-04-01T15:20:41;13.00;99.90
15386;DHT22;7791;47.246;9.648;2023-04-01T15:23:33;12.80;99.90
15386;DHT22;7791;47.246;9.648;2023-04-01T15:26:20;12.80;99.90
15386;DHT22;7791;47.246;9.648;2023-04-01T15:28:57;12.50;99.90
15386;DHT22;7791;47.246;9.648;2023-04-01T15:31:29;12.50;99.90
15386;DHT22;7791;47.246;9.648;2023-04-01T15:34:15;12.50;99.90
15386;DHT22;7791;47.246;9.648;2023-04-01T15:36:45;12.60;99.90
15386;DHT22;7791;47.246;9.648;2023-04-01T15:39:19;12.70;99.90
15386;DHT22;7791;47.246;9.648;2023-04-01T15:42:07;12.70;99.90
15386;DHT22;7791;47.246;9.648;2023-04-01T15:44:48;12.70;99.90
15386;DHT22;7791;47.246;9.648;2023-04-01T15:47:39;12.50;99.90
15386;DHT22;7791;47.246;9.648;2023-04-01T15:53:10;12.30;99.90
15386;DHT22;7791;47.246;9.648;2023-04-01T15:55:40;12.30;99.90
15386;DHT22;7791;47.246;9.648;2023-04-01T15:58:33;12.20;99.90
15386;DHT22;7791;47.246;9.648;2023-04-01T16:01:14;12.40;99.90
15386;DHT22;7791;47.246;9.648;2023-04-01T16:03:46;12.40;99.90
15386;DHT22;7791;47.246;9.648;2023-04-01T16:09:33;12.40;99.90
15386;DHT22;7791;47.246;9.648;2023-04-01T16:12:05;12.40;99.90
15386;DHT22;7791;47.246;9.648;2023-04-01T16:14:38;12.30;99.90
15386;DHT22;7791;47.246;9.648;2023-04-01T16:17:24;12.30;99.90
15386;DHT22;7791;47.246;9.648;2023-04-01T16:19:53;12.20;99.90
15386;DHT22;7791;47.246;9.648;2023-04-01T16:22:26;11.90;99.90
15386;DHT22;7791;47.246;9.648;2023-04-01T16:24:59;11.70;99.90
15386;DHT22;7791;47.246;9.648;2023-04-01T16:27:33;11.50;99.90
15386;DHT22;7791;47.246;9.648;2023-04-01T16:30:10;11.10;99.90
15386;DHT22;7791;47.246;9.648;2023-04-01T16:32:53;10.50;99.90
15386;DHT22;7791;47.246;9.648;2023-04-01T16:35:30;9.60;99.90
15386;DHT22;7791;47.246;9.648;2023-04-01T16:38:04;9.00;99.90
15386;DHT22;7791;47.246;9.648;2023-04-01T16:40:41;8.80;99.90
15386;DHT22;7791;47.246;9.648;2023-04-01T16:43:13;8.60;99.90
15386;DHT22;7791;47.246;9.648;2023-04-01T16:45:45;8.50;99.90
15386;DHT22;7791;47.246;9.648;2023-04-01T16:48:15;8.60;99.90
15386;DHT22;7791;47.246;9.648;2023-04-01T16:50:51;8.80;99.90
15386;DHT22;7791;47.246;9.648;2023-04-01T16:53:24;8.80;99.90
15386;DHT22;7791;47.246;9.648;2023-04-01T16:56:09;8.90;99.90
15386;DHT22;7791;47.246;9.648;2023-04-01T16:58:48;9.00;99.90
15386;DHT22;7791;47.246;9.648;2023-04-01T17:01:23;9.00;99.90
15386;DHT22;7791;47.246;9.648;2023-04-01T17:03:58;9.00;99.90
15386;DHT22;7791;47.246;9.648;2023-04-01T17:06:33;9.00;99.90
15386;DHT22;7791;47.246;9.648;2023-04-01T17:09:13;9.00;99.90
15386;DHT22;7791;47.246;9.648;2023-04-01T17:11:49;9.00;99.90
15386;DHT22;7791;47.246;9.648;2023-04-01T17:14:23;9.00;99.90
15386;DHT22;7791;47.246;9.648;2023-04-01T17:17:00;9.00;99.90
15386;DHT22;7791;47.246;9.648;2023-04-01T17:19:46;8.90;99.90
15386;DHT22;7791;47.246;9.648;2023-04-01T17:22:23;8.90;99.90
15386;DHT22;7791;47.246;9.648;2023-04-01T17:25:00;8.80;99.90
15386;DHT22;7791;47.246;9.648;2023-04-01T17:27:35;8.70;99.90
15386;DHT22;7791;47.246;9.648;2023-04-01T17:30:13;8.70;99.90
15386;DHT22;7791;47.246;9.648;2023-04-01T17:32:52;8.60;99.90
15386;DHT22;7791;47.246;9.648;2023-04-01T17:35:28;8.50;99.90
15386;DHT22;7791;47.246;9.648;2023-04-01T17:38:08;8.40;99.90
15386;DHT22;7791;47.246;9.648;2023-04-01T17:40:49;8.30;99.90
15386;DHT22;7791;47.246;9.648;2023-04-01T17:43:24;8.30;99.90
15386;DHT22;7791;47.246;9.648;2023-04-01T17:45:54;8.30;99.90
15386;DHT22;7791;47.246;9.648;2023-04-01T17:48:29;8.20;99.90
15386;DHT22;7791;47.246;9.648;2023-04-01T17:51:17;8.20;99.90
15386;DHT22;7791;47.246;9.648;2023-04-01T17:53:49;8.20;99.90
15386;DHT22;7791;47.246;9.648;2023-04-01T17:56:24;8.20;99.90
15386;DHT22;7791;47.246;9.648;2023-04-01T17:58:59;8.20;99.90
15386;DHT22;7791;47.246;9.648;2023-04-01T18:01:38;8.10;99.90
15386;DHT22;7791;47.246;9.648;2023-04-01T18:04:17;8.10;99.90
15386;DHT22;7791;47.246;9.648;2023-04-01T18:09:44;8.30;99.90
15386;DHT22;7791;47.246;9.648;2023-04-01T18:12:20;8.30;99.90
15386;DHT22;7791;47.246;9.648;2023-04-01T18:15:03;8.20;99.90
15386;DHT22;7791;47.246;9.648;2023-04-01T18:17:41;8.10;99.90
15386;DHT22;7791;47.246;9.648;2023-04-01T18:20:21;8.00;99.90
15386;DHT22;7791;47.246;9.648;2023-04-01T18:22:58;8.00;99.90
15386;DHT22;7791;47.246;9.648;2023-04-01T18:25:28;8.00;99.90
15386;DHT22;7791;47.246;9.648;2023-04-01T18:28:09;8.00;99.90
15386;DHT22;7791;47.246;9.648;2023-04-01T18:30:36;8.00;99.90
15386;DHT22;7791;47.246;9.648;2023-04-01T18:33:05;8.00;99.90
15386;DHT22;7791;47.246;9.648;2023-04-01T18:35:47;8.10;99.90
15386;DHT22;7791;47.246;9.648;2023-04-01T18:38:18;8.20;99.90
15386;DHT22;7791;47.246;9.648;2023-04-01T18:40:51;8.20;99.90
15386;DHT22;7791;47.246;9.648;2023-04-01T18:43:27;8.20;99.90
15386;DHT22;7791;47.246;9.648;2023-04-01T18:45:58;8.30;99.90
15386;DHT22;7791;47.246;9.648;2023-04-01T18:48:40;8.40;99.90
15386;DHT22;7791;47.246;9.648;2023-04-01T18:51:13;8.40;99.90
15386;DHT22;7791;47.246;9.648;2023-04-01T18:53:45;8.30;99.90
15386;DHT22;7791;47.246;9.648;2023-04-01T18:56:15;8.30;99.90
15386;DHT22;7791;47.246;9.648;2023-04-01T18:58:53;8.10;99.90
15386;DHT22;7791;47.246;9.648;2023-04-01T19:01:24;8.00;99.90
15386;DHT22;7791;47.246;9.648;2023-04-01T19:04:21;8.00;99.90
15386;DHT22;7791;47.246;9.648;2023-04-01T19:06:50;8.00;99.90
15386;DHT22;7791;47.246;9.648;2023-04-01T19:09:21;8.00;99.90
15386;DHT22;7791;47.246;9.648;2023-04-01T19:12:21;8.00;99.90
15386;DHT22;7791;47.246;9.648;2023-04-01T19:15:08;8.20;99.90
15386;DHT22;7791;47.246;9.648;2023-04-01T19:17:47;8.00;99.90
15386;DHT22;7791;47.246;9.648;2023-04-01T19:20:21;8.20;99.90
15386;DHT22;7791;47.246;9.648;2023-04-01T19:25:40;7.80;99.90
15386;DHT22;7791;47.246;9.648;2023-04-01T19:28:22;7.90;99.90
15386;DHT22;7791;47.246;9.648;2023-04-01T19:30:54;7.60;99.90
15386;DHT22;7791;47.246;9.648;2023-04-01T19:33:34;7.40;99.90
15386;DHT22;7791;47.246;9.648;2023-04-01T19:36:10;7.30;99.90
15386;DHT22;7791;47.246;9.648;2023-04-01T19:38:39;7.20;99.90
15386;DHT22;7791;47.246;9.648;2023-04-01T19:41:16;7.10;99.90
15386;DHT22;7791;47.246;9.648;2023-04-01T19:43:52;7.00;99.90
15386;DHT22;7791;47.246;9.648;2023-04-01T19:46:27;7.00;99.90
15386;DHT22;7791;47.246;9.648;2023-04-01T19:49:20;7.10;99.90
15386;DHT22;7791;47.246;9.648;2023-04-01T19:51:53;7.00;99.90
15386;DHT22;7791;47.246;9.648;2023-04-01T19:54:30;7.10;99.90
15386;DHT22;7791;47.246;9.648;2023-04-01T19:57:07;7.20;99.90
15386;DHT22;7791;47.246;9.648;2023-04-01T19:59:38;7.20;99.90
15386;DHT22;7791;47.246;9.648;2023-04-01T20:02:44;7.20;99.90
15386;DHT22;7791;47.246;9.648;2023-04-01T20:05:30;7.30;99.90
15386;DHT22;7791;47.246;9.648;2023-04-01T20:08:04;7.20;99.90
15386;DHT22;7791;47.246;9.648;2023-04-01T20:10:37;7.30;99.90
15386;DHT22;7791;47.246;9.648;2023-04-01T20:13:13;7.30;99.90
15386;DHT22;7791;47.246;9.648;2023-04-01T20:15:43;7.40;99.90
15386;DHT22;7791;47.246;9.648;2023-04-01T20:18:14;7.40;99.90
15386;DHT22;7791;47.246;9.648;2023-04-01T20:20:41;7.40;99.90
15386;DHT22;7791;47.246;9.648;2023-04-01T20:23:31;7.40;99.90
15386;DHT22;7791;47.246;9.648;2023-04-01T20:26:02;7.40;99.90
15386;DHT22;7791;47.246;9.648;2023-04-01T20:28:42;7.40;99.90
15386;DHT22;7791;47.246;9.648;2023-04-01T20:31:24;7.40;99.90
15386;DHT22;7791;47.246;9.648;2023-04-01T20:34:20;7.40;99.90
15386;DHT22;7791;47.246;9.648;2023-04-01T20:36:58;7.40;99.90